createdAt,value
2018-05-09T00:00:15.683Z,4.43
2018-05-09T00:02:43.745Z,5.50
2018-05-09T00:05:11.545Z,5.63
2018-05-09T00:07:39.436Z,5.40
2018-05-09T00:10:09.412Z,4.87
2018-05-09T00:12:38.127Z,4.70
2018-05-09T00:15:06.841Z,5.47
2018-05-09T00:17:35.616Z,7.13
2018-05-09T00:20:14.144Z,5.13
2018-05-09T00:22:43.742Z,5.53
2018-05-09T00:25:11.529Z,5.70
2018-05-09T00:27:39.444Z,6.03
2018-05-09T00:30:08.931Z,5.30
2018-05-09T00:32:38.056Z,6.20
2018-05-09T00:35:07.095Z,5.83
2018-05-09T00:37:37.145Z,5.37
2018-05-09T00:40:05.306Z,5.80
2018-05-09T00:42:34.027Z,5.23
2018-05-09T00:45:02.404Z,6.30
2018-05-09T00:47:55.938Z,6.60
2018-05-09T00:50:25.553Z,7.17
2018-05-09T00:52:54.397Z,6.33
2018-05-09T00:55:23.243Z,7.03
2018-05-09T00:57:52.039Z,6.80
2018-05-09T01:00:20.958Z,7.50
2018-05-09T01:02:48.732Z,8.00
2018-05-09T01:05:16.423Z,5.37
2018-05-09T01:07:45.118Z,7.43
2018-05-09T01:10:19.776Z,6.60
2018-05-09T01:12:47.873Z,6.10
2018-05-09T01:15:17.063Z,6.43
2018-05-09T01:17:45.088Z,6.20
2018-05-09T01:20:15.061Z,7.47
2018-05-09T01:22:43.818Z,5.70
2018-05-09T01:25:11.604Z,5.53
2018-05-09T01:27:39.803Z,5.60
2018-05-09T01:30:08.614Z,7.47
2018-05-09T01:32:37.423Z,6.67
2018-05-09T01:35:06.111Z,6.17
2018-05-09T01:43:20.949Z,7.00
2018-05-09T01:45:50.100Z,7.50
2018-05-09T01:48:19.678Z,7.77
2018-05-09T01:50:48.415Z,5.80
2018-05-09T01:53:17.311Z,7.47
2018-05-09T01:55:46.564Z,7.50
2018-05-09T01:58:17.340Z,8.23
2018-05-09T02:00:51.028Z,6.97
2018-05-09T02:03:20.010Z,7.40
2018-05-09T02:05:48.179Z,8.07
2018-05-09T02:08:18.066Z,7.83
2018-05-09T02:10:50.500Z,7.30
2018-05-09T02:13:21.777Z,6.63
2018-05-09T02:15:50.537Z,7.20
2018-05-09T02:18:19.197Z,8.30
2018-05-09T02:20:53.113Z,7.00
2018-05-09T02:23:20.933Z,7.27
2018-05-09T02:25:49.869Z,6.50
2018-05-09T02:28:17.898Z,7.20
2018-05-09T02:30:45.671Z,8.67
2018-05-09T02:33:13.498Z,8.23
2018-05-09T02:35:45.323Z,9.10
2018-05-09T02:38:13.487Z,8.45
2018-05-09T02:40:41.231Z,9.50
2018-05-09T02:43:09.266Z,12.10
2018-05-09T02:45:37.349Z,8.83
2018-05-09T02:48:05.972Z,9.53
2018-05-09T02:58:09.643Z,8.75
2018-05-09T03:00:38.049Z,9.87
2018-05-09T03:03:23.952Z,9.50
2018-05-09T03:05:52.712Z,9.83
2018-05-09T03:08:20.470Z,9.80
2018-05-09T03:15:48.412Z,10.47
2018-05-09T03:18:16.059Z,10.00
2018-05-09T03:20:46.064Z,10.67
2018-05-09T03:23:14.511Z,21.50
2018-05-09T03:25:43.060Z,12.20
2018-05-09T03:28:11.134Z,8.27
2018-05-09T03:30:46.032Z,9.43
2018-05-09T03:33:14.746Z,10.90
2018-05-09T03:35:42.681Z,10.80
2018-05-09T03:38:16.343Z,10.60
2018-05-09T03:40:44.747Z,11.50
2018-05-09T03:43:12.541Z,12.87
2018-05-09T03:45:41.821Z,11.85
2018-05-09T03:48:09.648Z,12.30
2018-05-09T03:50:38.421Z,11.30
2018-05-09T03:53:06.369Z,8.60
2018-05-09T03:55:34.118Z,9.10
2018-05-09T03:58:02.696Z,10.73
2018-05-09T04:05:45.762Z,14.97
2018-05-09T04:08:25.448Z,14.33
2018-05-09T04:10:53.433Z,13.60
2018-05-09T04:13:22.261Z,14.77
2018-05-09T04:15:50.690Z,10.40
2018-05-09T04:18:38.458Z,10.93
2018-05-09T04:21:07.132Z,8.07
2018-05-09T04:23:36.277Z,8.50
2018-05-09T04:26:04.460Z,8.60
2018-05-09T04:28:35.099Z,10.13
2018-05-09T04:31:03.834Z,9.80
2018-05-09T04:33:31.634Z,9.70
2018-05-09T04:35:59.955Z,9.60
2018-05-09T04:38:29.183Z,9.77
2018-05-09T04:46:42.220Z,9.50
2018-05-09T04:49:11.292Z,10.13
2018-05-09T04:51:39.545Z,7.30
2018-05-09T04:54:10.354Z,7.63
2018-05-09T04:56:38.315Z,8.37
2018-05-09T04:59:06.603Z,8.40
2018-05-09T05:01:34.622Z,9.43
2018-05-09T05:04:12.001Z,9.03
2018-05-09T05:09:16.440Z,8.53
2018-05-09T05:11:46.288Z,8.13
2018-05-09T05:14:14.432Z,7.63
2018-05-09T05:16:44.737Z,8.73
2018-05-09T05:19:13.507Z,8.70
2018-05-09T05:21:41.954Z,7.80
2018-05-09T05:24:12.208Z,9.17
2018-05-09T05:26:40.490Z,9.93
2018-05-09T05:31:55.643Z,8.13
2018-05-09T05:34:23.525Z,7.90
2018-05-09T05:36:51.339Z,8.97
2018-05-09T05:39:19.155Z,7.00
2018-05-09T05:41:51.695Z,7.30
2018-05-09T05:44:20.826Z,7.80
2018-05-09T05:55:36.129Z,8.20
2018-05-09T05:58:07.562Z,7.97
2018-05-09T06:00:36.346Z,6.80
2018-05-09T06:03:06.835Z,7.70
2018-05-09T06:05:35.598Z,7.73
2018-05-09T06:08:03.560Z,7.57
2018-05-09T06:10:33.225Z,7.53
2018-05-09T06:16:06.768Z,12.70
2018-05-09T06:21:34.189Z,11.77
2018-05-09T06:24:03.348Z,10.37
2018-05-09T06:29:35.651Z,10.40
2018-05-09T06:32:05.575Z,10.13
2018-05-09T06:34:33.678Z,10.00
2018-05-09T06:37:02.061Z,8.03
2018-05-09T06:39:30.610Z,7.90
2018-05-09T06:42:01.857Z,7.60
2018-05-09T06:47:27.891Z,7.10
2018-05-09T06:49:55.899Z,7.17
2018-05-09T06:52:25.989Z,7.20
2018-05-09T06:54:57.864Z,8.37
2018-05-09T06:57:26.687Z,6.77
2018-05-09T06:59:57.740Z,6.20
2018-05-09T07:02:27.123Z,6.03
2018-05-09T07:04:54.967Z,6.37
2018-05-09T07:07:24.124Z,5.93
2018-05-09T07:09:53.623Z,5.83
2018-05-09T07:16:12.307Z,5.87
2018-05-09T07:18:42.183Z,5.90
2018-05-09T07:21:11.023Z,5.65
2018-05-09T07:23:39.865Z,6.60
2018-05-09T07:26:13.987Z,6.65
2018-05-09T07:28:41.927Z,5.30
2018-05-09T07:31:09.787Z,6.13
2018-05-09T07:33:38.750Z,4.90
2018-05-09T07:36:08.574Z,5.63
2018-05-09T07:38:37.786Z,5.80
2018-05-09T07:41:08.157Z,5.80
2018-05-09T07:43:38.367Z,6.20
2018-05-09T07:46:07.194Z,5.80
2018-05-09T07:48:36.173Z,5.47
2018-05-09T07:51:04.490Z,6.00
2018-05-09T07:53:33.991Z,5.60
2018-05-09T07:56:04.859Z,5.23
2018-05-09T07:58:32.731Z,5.30
2018-05-09T08:01:01.368Z,5.10
2018-05-09T08:03:30.974Z,4.93
2018-05-09T08:06:00.720Z,5.67
2018-05-09T08:08:30.639Z,4.27
2018-05-09T08:11:01.757Z,4.65
2018-05-09T08:13:32.095Z,5.40
2018-05-09T08:16:01.320Z,5.90
2018-05-09T08:18:31.524Z,5.43
2018-05-09T08:20:59.610Z,4.50
2018-05-09T08:23:27.988Z,3.80
2018-05-09T08:25:57.656Z,5.27
2018-05-09T08:28:26.899Z,3.97
2018-05-09T08:30:57.204Z,4.80
2018-05-09T08:33:26.939Z,3.73
2018-05-09T08:35:55.136Z,4.27
2018-05-09T08:38:24.277Z,4.20
2018-05-09T08:43:21.517Z,3.80
2018-05-09T08:45:49.734Z,4.40
2018-05-09T08:48:19.490Z,4.20
2018-05-09T08:50:47.991Z,4.50
2018-05-09T08:53:17.261Z,3.95
2018-05-09T08:55:45.135Z,4.00
2018-05-09T09:00:40.697Z,4.20
2018-05-09T09:03:09.333Z,4.00
2018-05-09T09:05:37.270Z,4.13
2018-05-09T09:08:05.562Z,4.10
2018-05-09T09:10:34.398Z,3.95
2018-05-09T09:13:03.629Z,4.50
2018-05-09T09:15:34.380Z,4.15
2018-05-09T09:18:02.764Z,3.30
2018-05-09T09:20:31.483Z,4.03
2018-05-09T09:23:00.297Z,3.40
2018-05-09T09:25:29.939Z,4.10
2018-05-09T09:27:58.237Z,4.37
2018-05-09T09:30:28.787Z,4.27
2018-05-09T09:32:57.099Z,4.07
2018-05-09T09:35:25.924Z,3.90
2018-05-09T09:37:53.903Z,3.80
2018-05-09T09:40:22.797Z,3.70
2018-05-09T09:42:52.571Z,4.10
2018-05-09T09:45:20.524Z,4.17
2018-05-09T09:47:48.815Z,3.83
2018-05-09T09:50:18.473Z,3.80
2018-05-09T09:52:47.405Z,3.30
2018-05-09T09:55:15.467Z,4.47
2018-05-09T09:57:44.485Z,4.35
2018-05-09T10:00:13.059Z,4.00
2018-05-09T10:02:41.172Z,4.80
2018-05-09T10:05:09.538Z,4.77
2018-05-09T10:07:37.671Z,4.43
2018-05-09T10:10:05.663Z,4.50
2018-05-09T10:12:33.525Z,4.70
2018-05-09T10:15:01.988Z,4.43
2018-05-09T10:17:30.250Z,4.53
2018-05-09T10:19:59.945Z,4.27
2018-05-09T10:22:28.205Z,4.80
2018-05-09T10:24:57.082Z,4.37
2018-05-09T10:27:27.026Z,4.40
2018-05-09T10:29:55.121Z,4.30
2018-05-09T10:32:24.876Z,4.90
2018-05-09T10:34:54.275Z,4.60
2018-05-09T10:37:22.842Z,4.63
2018-05-09T10:39:50.822Z,5.43
2018-05-09T10:42:19.004Z,4.50
2018-05-09T10:44:47.812Z,4.50
2018-05-09T10:47:15.907Z,3.83
2018-05-09T10:49:43.676Z,4.50
2018-05-09T10:52:11.647Z,4.53
2018-05-09T10:54:40.539Z,6.03
2018-05-09T10:57:08.713Z,4.73
2018-05-09T10:59:37.833Z,4.23
2018-05-09T11:02:06.602Z,4.43
2018-05-09T11:04:35.166Z,5.27
2018-05-09T11:07:03.312Z,5.37
2018-05-09T11:09:32.200Z,4.40
2018-05-09T11:12:00.359Z,5.00
2018-05-09T11:14:28.479Z,4.37
2018-05-09T11:16:56.368Z,5.13
2018-05-09T11:19:24.490Z,4.90
2018-05-09T11:21:52.315Z,4.97
2018-05-09T11:24:21.032Z,4.20
2018-05-09T11:26:48.919Z,4.80
2018-05-09T11:29:17.476Z,5.30
2018-05-09T11:31:46.339Z,4.80
2018-05-09T11:34:14.353Z,5.00
2018-05-09T11:36:42.418Z,5.43
2018-05-09T11:39:10.795Z,5.30
2018-05-09T11:41:39.082Z,4.93
2018-05-09T11:44:14.478Z,4.63
2018-05-09T11:46:42.490Z,5.43
2018-05-09T11:49:11.260Z,5.07
2018-05-09T11:51:40.724Z,4.90
2018-05-09T11:57:02.502Z,4.90
2018-05-09T11:59:30.437Z,6.67
2018-05-09T12:01:59.172Z,5.90
2018-05-09T12:04:27.617Z,5.43
2018-05-09T12:06:56.659Z,5.50
2018-05-09T12:09:25.555Z,5.03
2018-05-09T12:11:53.575Z,5.10
2018-05-09T12:14:21.564Z,5.33
2018-05-09T12:16:50.539Z,5.67
2018-05-09T12:19:20.107Z,5.17
2018-05-09T12:21:49.328Z,5.60
2018-05-09T12:24:18.024Z,5.10
2018-05-09T12:26:46.175Z,6.40
2018-05-09T12:29:14.367Z,5.17
2018-05-09T12:31:43.013Z,5.80
2018-05-09T12:34:11.903Z,5.00
2018-05-09T12:36:40.829Z,5.53
2018-05-09T12:39:09.054Z,4.67
2018-05-09T12:41:37.393Z,5.00
2018-05-09T12:44:05.794Z,4.30
2018-05-09T12:46:33.968Z,5.33
2018-05-09T12:49:02.691Z,4.57
2018-05-09T12:51:30.979Z,4.23
2018-05-09T12:53:59.538Z,4.63
2018-05-09T12:56:27.612Z,5.07
2018-05-09T12:58:55.574Z,5.93
2018-05-09T13:01:23.365Z,4.80
2018-05-09T13:03:51.333Z,4.80
2018-05-09T13:06:19.400Z,4.97
2018-05-09T13:08:47.195Z,5.70
2018-05-09T13:11:16.177Z,4.70
2018-05-09T13:13:44.952Z,4.73
2018-05-09T13:16:13.438Z,5.03
2018-05-09T13:18:42.508Z,4.00
2018-05-09T13:21:10.428Z,4.17
2018-05-09T13:23:39.961Z,4.80
2018-05-09T13:26:08.374Z,5.30
2018-05-09T13:28:37.238Z,4.90
2018-05-09T13:31:05.262Z,4.40
2018-05-09T13:33:34.351Z,5.37
2018-05-09T13:36:02.527Z,5.40
2018-05-09T13:38:30.423Z,5.27
2018-05-09T13:40:59.817Z,5.20
2018-05-09T13:43:28.123Z,4.17
2018-05-09T13:45:55.696Z,5.10
2018-05-09T13:48:23.253Z,4.83
2018-05-09T13:50:51.401Z,5.27
2018-05-09T13:53:19.077Z,4.73
2018-05-09T13:55:47.558Z,4.73
2018-05-09T13:58:15.224Z,5.13
2018-05-09T14:00:44.204Z,4.80
2018-05-09T14:03:13.371Z,4.90
2018-05-09T14:05:41.257Z,4.47
2018-05-09T14:08:12.164Z,6.17
2018-05-09T14:10:39.785Z,4.33
2018-05-09T14:13:07.329Z,5.10
2018-05-09T14:15:38.589Z,4.63
2018-05-09T14:18:13.957Z,4.77
2018-05-09T14:20:45.371Z,5.67
2018-05-09T14:23:13.865Z,5.20
2018-05-09T14:25:42.928Z,5.40
2018-05-09T14:28:10.906Z,5.63
2018-05-09T14:30:38.457Z,5.20
2018-05-09T14:33:06.439Z,4.93
2018-05-09T14:35:34.772Z,5.30
2018-05-09T14:38:02.344Z,5.40
2018-05-09T14:40:30.284Z,6.23
2018-05-09T14:42:57.796Z,5.23
2018-05-09T14:45:26.917Z,6.70
2018-05-09T14:47:54.463Z,5.17
2018-05-09T14:50:22.631Z,5.00
2018-05-09T14:52:50.917Z,4.60
2018-05-09T14:55:19.020Z,5.57
2018-05-09T14:57:48.670Z,8.03
2018-05-09T15:00:16.409Z,5.80
2018-05-09T15:02:43.999Z,5.50
2018-05-09T15:05:11.603Z,4.67
2018-05-09T15:07:41.032Z,5.00
2018-05-09T15:10:08.695Z,5.30
2018-05-09T15:12:36.758Z,5.13
2018-05-09T15:15:05.749Z,10.17
2018-05-09T15:17:35.039Z,7.50
2018-05-09T15:20:03.606Z,4.57
2018-05-09T15:22:31.108Z,5.23
2018-05-09T15:25:00.570Z,5.20
2018-05-09T15:27:28.794Z,5.87
2018-05-09T15:29:57.205Z,5.50
2018-05-09T15:32:25.646Z,5.70
2018-05-09T15:34:54.283Z,5.30
2018-05-09T15:37:21.921Z,5.90
2018-05-09T15:39:49.518Z,6.07
2018-05-09T15:42:18.006Z,6.33
2018-05-09T15:44:46.493Z,5.93
2018-05-09T15:47:15.188Z,6.33
2018-05-09T15:49:44.380Z,5.70
2018-05-09T15:52:11.989Z,5.83
2018-05-09T15:54:40.275Z,5.90
2018-05-09T15:57:08.796Z,6.40
2018-05-09T15:59:37.187Z,6.30
2018-05-09T16:02:04.832Z,6.67
2018-05-09T16:04:32.339Z,6.10
2018-05-09T16:07:00.618Z,6.03
2018-05-09T16:09:29.404Z,5.83
2018-05-09T16:12:00.120Z,6.63
2018-05-09T16:14:28.262Z,6.10
2018-05-09T16:16:56.722Z,6.03
2018-05-09T16:19:24.550Z,6.97
2018-05-09T16:21:52.637Z,7.07
2018-05-09T16:24:21.821Z,6.13
2018-05-09T16:26:50.600Z,6.90
2018-05-09T16:29:21.127Z,6.93
2018-05-09T16:31:55.608Z,6.40
2018-05-09T16:34:24.568Z,6.20
2018-05-09T16:36:52.850Z,6.33
2018-05-09T16:39:21.396Z,7.13
2018-05-09T16:41:50.392Z,7.37
2018-05-09T16:44:18.741Z,6.10
2018-05-09T16:46:48.439Z,6.37
2018-05-09T16:49:17.837Z,6.00
2018-05-09T16:51:48.412Z,6.60
2018-05-09T16:54:18.121Z,6.30
2018-05-09T16:56:53.489Z,6.63
2018-05-09T16:59:23.299Z,6.77
2018-05-09T17:01:52.369Z,6.70
2018-05-09T17:07:02.983Z,7.27
2018-05-09T17:09:37.272Z,7.20
2018-05-09T17:12:05.273Z,8.43
2018-05-09T17:17:22.412Z,8.10
2018-05-09T17:19:51.459Z,7.23
2018-05-09T17:22:31.373Z,7.40
2018-05-09T17:25:00.874Z,7.90
2018-05-09T17:27:30.198Z,8.20
2018-05-09T17:30:00.531Z,9.10
2018-05-09T17:41:08.480Z,7.33
2018-05-09T17:43:38.774Z,8.13
2018-05-09T17:46:07.053Z,9.20
2018-05-09T17:48:36.748Z,8.13
2018-05-09T17:51:09.408Z,7.55
2018-05-09T17:53:37.575Z,7.80
2018-05-09T17:56:05.937Z,11.63
2018-05-09T17:58:34.937Z,8.63
2018-05-09T18:01:04.444Z,8.07
2018-05-09T18:03:45.832Z,8.80
2018-05-09T18:06:14.520Z,8.47
2018-05-09T18:08:45.710Z,7.47
2018-05-09T18:11:24.019Z,7.90
2018-05-09T18:20:04.500Z,8.20
2018-05-09T18:31:45.646Z,8.83
2018-05-09T18:37:18.007Z,7.70
2018-05-09T18:51:31.286Z,8.40
2018-05-09T18:54:18.654Z,8.35
2018-05-09T18:56:48.773Z,9.67
2018-05-09T19:02:21.853Z,10.90
2018-05-09T19:05:02.597Z,8.30
2018-05-09T19:07:43.538Z,9.10
2018-05-09T19:10:24.209Z,8.93
2018-05-09T19:25:14.206Z,8.87
2018-05-09T19:28:08.846Z,10.20
2018-05-09T19:30:37.442Z,10.70
2018-05-09T19:36:22.446Z,10.80
2018-05-09T19:39:21.479Z,11.30
2018-05-09T19:51:24.905Z,11.50
2018-05-09T19:57:11.042Z,10.57
2018-05-09T20:06:01.879Z,12.77
2018-05-09T20:08:45.733Z,12.45
2018-05-09T20:14:20.330Z,11.57
2018-05-09T20:19:55.358Z,12.07
2018-05-09T20:22:44.563Z,12.80
2018-05-09T20:25:24.606Z,11.43
2018-05-09T20:28:05.272Z,12.07
2018-05-09T20:30:51.439Z,10.53
2018-05-09T20:33:32.122Z,11.90
2018-05-09T20:36:12.541Z,12.43
2018-05-09T20:38:53.918Z,13.73
2018-05-09T20:41:34.394Z,11.20
2018-05-09T20:44:21.912Z,10.77
2018-05-09T20:47:02.426Z,12.03
2018-05-09T20:49:50.633Z,11.50
2018-05-09T20:52:31.287Z,12.90
2018-05-09T20:55:16.073Z,9.40
2018-05-09T20:58:03.076Z,10.87
2018-05-09T21:03:43.756Z,11.43
2018-05-09T21:06:24.518Z,11.07
2018-05-09T21:09:11.794Z,9.90
2018-05-09T21:11:52.829Z,11.03
2018-05-09T21:14:32.699Z,8.90
2018-05-09T21:17:13.715Z,8.87
2018-05-09T21:19:53.137Z,9.63
2018-05-09T21:22:41.863Z,9.60
2018-05-09T21:25:22.770Z,9.90
2018-05-09T21:28:03.477Z,10.33
2018-05-09T21:30:32.092Z,9.73
2018-05-09T21:33:12.510Z,11.20
2018-05-09T21:36:01.215Z,10.03
2018-05-09T21:38:46.029Z,10.57
2018-05-09T21:41:37.565Z,10.33
2018-05-09T21:44:19.366Z,10.60
2018-05-09T21:47:07.541Z,12.17
2018-05-09T21:49:52.313Z,11.50
2018-05-09T21:52:34.074Z,10.80
2018-05-09T21:55:15.030Z,11.63
2018-05-09T21:57:57.901Z,10.77
2018-05-09T22:00:38.704Z,11.90
2018-05-09T22:03:21.019Z,11.03
2018-05-09T22:08:55.862Z,10.93
2018-05-09T22:11:37.729Z,11.10
2018-05-09T22:14:18.910Z,12.37
2018-05-09T22:17:01.402Z,12.30
2018-05-09T22:19:43.294Z,11.57
2018-05-09T22:22:26.549Z,12.33
2018-05-09T22:28:00.870Z,12.35
2018-05-09T22:30:41.623Z,11.70
2018-05-09T22:33:21.578Z,12.55
2018-05-09T22:36:00.772Z,14.30
2018-05-09T22:38:52.537Z,10.90
2018-05-09T22:41:41.999Z,10.67
2018-05-09T22:47:15.840Z,15.00
2018-05-09T22:49:56.382Z,14.57
2018-05-09T22:52:38.741Z,13.85
2018-05-09T22:58:25.262Z,14.87
2018-05-09T23:01:07.539Z,13.40
2018-05-09T23:03:49.898Z,14.63
2018-05-09T23:06:34.332Z,13.80
2018-05-09T23:09:18.791Z,15.70
2018-05-09T23:14:37.944Z,13.50
2018-05-09T23:20:15.577Z,16.90
2018-05-09T23:22:56.911Z,17.10
2018-05-09T23:25:44.816Z,15.03
2018-05-09T23:31:23.520Z,13.97
2018-05-09T23:39:34.112Z,16.33
2018-05-09T23:42:15.511Z,17.50
2018-05-09T23:56:33.327Z,15.77
2018-05-09T23:59:15.291Z,17.00
